sensor_id;sensor_type;location;lat;lon;timestamp;temperature;humidity
16064;DHT22;8136;53.172;8.256;2023-12-04T00:01:17;0.70;99.90
16064;DHT22;8136;53.172;8.256;2023-12-04T00:03:43;0.60;99.90
16064;DHT22;8136;53.172;8.256;2023-12-04T00:06:11;0.60;99.90
16064;DHT22;8136;53.172;8.256;2023-12-04T00:08:38;0.60;99.90
16064;DHT22;8136;53.172;8.256;2023-12-04T00:11:06;0.60;99.90
16064;DHT22;8136;53.172;8.256;2023-12-04T00:13:33;0.60;99.90
16064;DHT22;8136;53.172;8.256;2023-12-04T00:16:00;0.60;99.90
16064;DHT22;8136;53.172;8.256;2023-12-04T00:18:28;0.60;99.90
16064;DHT22;8136;53.172;8.256;2023-12-04T00:20:55;0.60;99.90
16064;DHT22;8136;53.172;8.256;2023-12-04T00:23:22;0.70;99.90
16064;DHT22;8136;53.172;8.256;2023-12-04T00:25:49;0.70;99.90
16064;DHT22;8136;53.172;8.256;2023-12-04T00:28:16;0.60;99.90
16064;DHT22;8136;53.172;8.256;2023-12-04T00:30:43;0.60;99.90
16064;DHT22;8136;53.172;8.256;2023-12-04T00:33:10;0.60;99.90
16064;DHT22;8136;53.172;8.256;2023-12-04T00:35:38;0.60;99.90
16064;DHT22;8136;53.172;8.256;2023-12-04T00:38:05;0.60;99.90
16064;DHT22;8136;53.172;8.256;2023-12-04T00:40:35;0.60;99.90
16064;DHT22;8136;53.172;8.256;2023-12-04T00:43:06;0.60;99.90
16064;DHT22;8136;53.172;8.256;2023-12-04T00:45:33;0.60;99.90
16064;DHT22;8136;53.172;8.256;2023-12-04T00:48:00;0.60;99.90
16064;DHT22;8136;53.172;8.256;2023-12-04T00:50:27;0.60;99.90
16064;DHT22;8136;53.172;8.256;2023-12-04T00:52:56;0.60;99.90
16064;DHT22;8136;53.172;8.256;2023-12-04T00:55:23;0.60;99.90
16064;DHT22;8136;53.172;8.256;2023-12-04T00:57:50;0.70;99.90
16064;DHT22;8136;53.172;8.256;2023-12-04T01:00:19;0.70;99.90
16064;DHT22;8136;53.172;8.256;2023-12-04T01:02:48;0.70;99.90
16064;DHT22;8136;53.172;8.256;2023-12-04T01:05:15;0.70;99.90
16064;DHT22;8136;53.172;8.256;2023-12-04T01:07:44;0.70;99.90
16064;DHT22;8136;53.172;8.256;2023-12-04T01:10:12;0.70;99.90
16064;DHT22;8136;53.172;8.256;2023-12-04T01:16:04;0.70;99.90
16064;DHT22;8136;53.172;8.256;2023-12-04T01:18:31;0.70;99.90
16064;DHT22;8136;53.172;8.256;2023-12-04T01:20:58;0.70;99.90
16064;DHT22;8136;53.172;8.256;2023-12-04T01:23:25;0.70;99.90
16064;DHT22;8136;53.172;8.256;2023-12-04T01:25:54;0.70;99.90
16064;DHT22;8136;53.172;8.256;2023-12-04T01:28:21;0.70;99.90
16064;DHT22;8136;53.172;8.256;2023-12-04T01:30:47;0.60;99.90
16064;DHT22;8136;53.172;8.256;2023-12-04T01:33:14;0.70;99.90
16064;DHT22;8136;53.172;8.256;2023-12-04T01:35:42;0.70;99.90
16064;DHT22;8136;53.172;8.256;2023-12-04T01:38:09;0.70;99.90
16064;DHT22;8136;53.172;8.256;2023-12-04T01:40:35;0.70;99.90
16064;DHT22;8136;53.172;8.256;2023-12-04T01:43:04;0.70;99.90
16064;DHT22;8136;53.172;8.256;2023-12-04T01:45:31;0.70;99.90
16064;DHT22;8136;53.172;8.256;2023-12-04T01:47:58;0.70;99.90
16064;DHT22;8136;53.172;8.256;2023-12-04T01:50:25;0.80;99.90
16064;DHT22;8136;53.172;8.256;2023-12-04T01:52:53;0.70;99.90
16064;DHT22;8136;53.172;8.256;2023-12-04T01:55:20;0.80;99.90
16064;DHT22;8136;53.172;8.256;2023-12-04T01:57:50;0.70;99.90
16064;DHT22;8136;53.172;8.256;2023-12-04T02:00:27;0.70;99.90
16064;DHT22;8136;53.172;8.256;2023-12-04T02:02:54;0.80;99.90
16064;DHT22;8136;53.172;8.256;2023-12-04T02:05:23;0.80;99.90
16064;DHT22;8136;53.172;8.256;2023-12-04T02:07:51;0.80;99.90
16064;DHT22;8136;53.172;8.256;2023-12-04T02:10:19;0.80;99.90
16064;DHT22;8136;53.172;8.256;2023-12-04T02:12:47;0.80;99.90
16064;DHT22;8136;53.172;8.256;2023-12-04T02:15:14;0.80;99.90
16064;DHT22;8136;53.172;8.256;2023-12-04T02:17:53;0.80;99.90
16064;DHT22;8136;53.172;8.256;2023-12-04T02:20:21;0.80;99.90
16064;DHT22;8136;53.172;8.256;2023-12-04T02:22:57;0.80;99.90
16064;DHT22;8136;53.172;8.256;2023-12-04T02:25:33;0.80;99.90
16064;DHT22;8136;53.172;8.256;2023-12-04T02:28:02;0.70;99.90
16064;DHT22;8136;53.172;8.256;2023-12-04T02:30:31;0.70;99.90
16064;DHT22;8136;53.172;8.256;2023-12-04T02:33:09;0.70;99.90
16064;DHT22;8136;53.172;8.256;2023-12-04T02:35:40;0.80;99.90
16064;DHT22;8136;53.172;8.256;2023-12-04T02:38:08;0.80;99.90
16064;DHT22;8136;53.172;8.256;2023-12-04T02:40:37;0.80;99.90
16064;DHT22;8136;53.172;8.256;2023-12-04T02:43:04;0.70;99.90
16064;DHT22;8136;53.172;8.256;2023-12-04T02:45:37;0.70;99.90
16064;DHT22;8136;53.172;8.256;2023-12-04T02:48:04;0.80;99.90
16064;DHT22;8136;53.172;8.256;2023-12-04T02:50:31;0.80;99.90
16064;DHT22;8136;53.172;8.256;2023-12-04T02:53:05;0.80;99.90
16064;DHT22;8136;53.172;8.256;2023-12-04T02:55:32;0.80;99.90
16064;DHT22;8136;53.172;8.256;2023-12-04T02:58:01;0.80;99.90
16064;DHT22;8136;53.172;8.256;2023-12-04T03:00:28;0.70;99.90
16064;DHT22;8136;53.172;8.256;2023-12-04T03:02:55;0.70;99.90
16064;DHT22;8136;53.172;8.256;2023-12-04T03:05:22;0.80;99.90
16064;DHT22;8136;53.172;8.256;2023-12-04T03:07:48;0.80;99.90
16064;DHT22;8136;53.172;8.256;2023-12-04T03:10:15;0.80;99.90
16064;DHT22;8136;53.172;8.256;2023-12-04T03:12:43;0.80;99.90
16064;DHT22;8136;53.172;8.256;2023-12-04T03:15:11;0.80;99.90
16064;DHT22;8136;53.172;8.256;2023-12-04T03:17:39;0.80;99.90
16064;DHT22;8136;53.172;8.256;2023-12-04T03:20:06;0.80;99.90
16064;DHT22;8136;53.172;8.256;2023-12-04T03:22:34;0.70;99.90
16064;DHT22;8136;53.172;8.256;2023-12-04T03:25:01;0.80;99.90
16064;DHT22;8136;53.172;8.256;2023-12-04T03:27:28;0.80;99.90
16064;DHT22;8136;53.172;8.256;2023-12-04T03:29:55;0.80;99.90
16064;DHT22;8136;53.172;8.256;2023-12-04T03:32:33;0.80;99.90
16064;DHT22;8136;53.172;8.256;2023-12-04T03:35:01;0.80;99.90
16064;DHT22;8136;53.172;8.256;2023-12-04T03:37:28;0.70;99.90
16064;DHT22;8136;53.172;8.256;2023-12-04T03:39:55;0.70;99.90
16064;DHT22;8136;53.172;8.256;2023-12-04T03:42:22;0.70;99.90
16064;DHT22;8136;53.172;8.256;2023-12-04T03:44:49;0.80;99.90
16064;DHT22;8136;53.172;8.256;2023-12-04T03:47:16;0.80;99.90
16064;DHT22;8136;53.172;8.256;2023-12-04T03:49:44;0.80;99.90
16064;DHT22;8136;53.172;8.256;2023-12-04T03:52:11;0.70;99.90
16064;DHT22;8136;53.172;8.256;2023-12-04T03:54:37;0.70;99.90
16064;DHT22;8136;53.172;8.256;2023-12-04T03:57:04;0.70;99.90
16064;DHT22;8136;53.172;8.256;2023-12-04T03:59:31;0.80;99.90
16064;DHT22;8136;53.172;8.256;2023-12-04T04:01:58;0.80;99.90
16064;DHT22;8136;53.172;8.256;2023-12-04T04:04:25;0.80;99.90
16064;DHT22;8136;53.172;8.256;2023-12-04T04:06:53;0.80;99.90
16064;DHT22;8136;53.172;8.256;2023-12-04T04:09:20;0.80;99.90
16064;DHT22;8136;53.172;8.256;2023-12-04T04:11:47;0.80;99.90
16064;DHT22;8136;53.172;8.256;2023-12-04T04:14:14;0.80;99.90
16064;DHT22;8136;53.172;8.256;2023-12-04T04:16:41;0.80;99.90
16064;DHT22;8136;53.172;8.256;2023-12-04T04:19:08;0.80;99.90
16064;DHT22;8136;53.172;8.256;2023-12-04T04:21:44;0.70;99.90
16064;DHT22;8136;53.172;8.256;2023-12-04T04:24:13;0.80;99.90
16064;DHT22;8136;53.172;8.256;2023-12-04T04:26:39;0.70;99.90
16064;DHT22;8136;53.172;8.256;2023-12-04T04:29:08;0.70;99.90
16064;DHT22;8136;53.172;8.256;2023-12-04T06:39:16;1.00;99.90
16064;DHT22;8136;53.172;8.256;2023-12-04T06:41:44;1.00;99.90
16064;DHT22;8136;53.172;8.256;2023-12-04T06:44:12;1.00;99.90
16064;DHT22;8136;53.172;8.256;2023-12-04T06:46:44;1.10;99.90
16064;DHT22;8136;53.172;8.256;2023-12-04T06:49:14;1.10;99.90
16064;DHT22;8136;53.172;8.256;2023-12-04T06:51:42;1.10;99.90
16064;DHT22;8136;53.172;8.256;2023-12-04T06:54:09;1.10;99.90
16064;DHT22;8136;53.172;8.256;2023-12-04T06:56:38;1.20;99.90
16064;DHT22;8136;53.172;8.256;2023-12-04T06:59:11;1.10;99.90
16064;DHT22;8136;53.172;8.256;2023-12-04T07:01:39;1.20;99.90
16064;DHT22;8136;53.172;8.256;2023-12-04T07:04:09;1.20;99.90
16064;DHT22;8136;53.172;8.256;2023-12-04T07:06:37;1.10;99.90
16064;DHT22;8136;53.172;8.256;2023-12-04T07:09:04;1.20;99.90
16064;DHT22;8136;53.172;8.256;2023-12-04T07:11:33;1.20;99.90
16064;DHT22;8136;53.172;8.256;2023-12-04T07:14:01;1.20;99.90
16064;DHT22;8136;53.172;8.256;2023-12-04T07:16:28;1.20;99.90
16064;DHT22;8136;53.172;8.256;2023-12-04T07:18:56;1.20;99.90
16064;DHT22;8136;53.172;8.256;2023-12-04T07:21:26;1.20;99.90
16064;DHT22;8136;53.172;8.256;2023-12-04T07:23:53;1.20;99.90
16064;DHT22;8136;53.172;8.256;2023-12-04T07:26:20;1.30;99.90
16064;DHT22;8136;53.172;8.256;2023-12-04T07:28:47;1.30;99.90
16064;DHT22;8136;53.172;8.256;2023-12-04T07:31:15;1.20;99.90
16064;DHT22;8136;53.172;8.256;2023-12-04T07:33:42;1.20;99.90
16064;DHT22;8136;53.172;8.256;2023-12-04T07:36:09;1.20;99.90
16064;DHT22;8136;53.172;8.256;2023-12-04T07:38:36;1.20;99.90
16064;DHT22;8136;53.172;8.256;2023-12-04T07:41:04;1.30;99.90
16064;DHT22;8136;53.172;8.256;2023-12-04T07:43:31;1.30;99.90
16064;DHT22;8136;53.172;8.256;2023-12-04T07:45:58;1.30;99.90
16064;DHT22;8136;53.172;8.256;2023-12-04T07:48:28;1.40;99.90
16064;DHT22;8136;53.172;8.256;2023-12-04T07:51:08;1.40;99.90
16064;DHT22;8136;53.172;8.256;2023-12-04T07:53:38;1.40;99.90
16064;DHT22;8136;53.172;8.256;2023-12-04T07:56:06;1.50;99.90
16064;DHT22;8136;53.172;8.256;2023-12-04T07:58:33;1.50;99.90
16064;DHT22;8136;53.172;8.256;2023-12-04T08:01:00;1.50;99.90
16064;DHT22;8136;53.172;8.256;2023-12-04T08:03:28;1.50;99.90
16064;DHT22;8136;53.172;8.256;2023-12-04T08:05:55;1.50;99.90
16064;DHT22;8136;53.172;8.256;2023-12-04T08:08:22;1.50;99.90
16064;DHT22;8136;53.172;8.256;2023-12-04T08:10:49;1.60;99.90
16064;DHT22;8136;53.172;8.256;2023-12-04T08:13:16;1.60;99.90
16064;DHT22;8136;53.172;8.256;2023-12-04T08:15:43;1.60;99.90
16064;DHT22;8136;53.172;8.256;2023-12-04T08:18:10;1.60;99.90
16064;DHT22;8136;53.172;8.256;2023-12-04T08:20:39;1.60;99.90
16064;DHT22;8136;53.172;8.256;2023-12-04T08:23:05;1.60;99.90
16064;DHT22;8136;53.172;8.256;2023-12-04T08:25:32;1.60;99.90
16064;DHT22;8136;53.172;8.256;2023-12-04T08:28:00;1.60;99.90
16064;DHT22;8136;53.172;8.256;2023-12-04T08:30:28;1.60;99.90
16064;DHT22;8136;53.172;8.256;2023-12-04T08:32:54;1.60;99.90
16064;DHT22;8136;53.172;8.256;2023-12-04T08:35:21;1.60;99.90
16064;DHT22;8136;53.172;8.256;2023-12-04T08:37:50;1.60;99.90
16064;DHT22;8136;53.172;8.256;2023-12-04T08:40:17;1.60;99.90
16064;DHT22;8136;53.172;8.256;2023-12-04T08:42:43;1.50;99.90
16064;DHT22;8136;53.172;8.256;2023-12-04T08:45:11;1.50;99.90
16064;DHT22;8136;53.172;8.256;2023-12-04T08:47:38;1.60;99.90
16064;DHT22;8136;53.172;8.256;2023-12-04T08:50:06;1.60;99.90
16064;DHT22;8136;53.172;8.256;2023-12-04T08:52:33;1.60;99.90
16064;DHT22;8136;53.172;8.256;2023-12-04T08:55:01;1.60;99.90
16064;DHT22;8136;53.172;8.256;2023-12-04T08:57:28;1.60;99.90
16064;DHT22;8136;53.172;8.256;2023-12-04T08:59:55;1.60;99.90
16064;DHT22;8136;53.172;8.256;2023-12-04T09:02:22;1.60;99.90
16064;DHT22;8136;53.172;8.256;2023-12-04T09:04:50;1.60;99.90
16064;DHT22;8136;53.172;8.256;2023-12-04T09:07:17;1.60;99.90
16064;DHT22;8136;53.172;8.256;2023-12-04T09:09:44;1.60;99.90
16064;DHT22;8136;53.172;8.256;2023-12-04T09:12:13;1.60;99.90
16064;DHT22;8136;53.172;8.256;2023-12-04T09:14:43;1.70;99.90
16064;DHT22;8136;53.172;8.256;2023-12-04T09:17:13;1.70;99.90
16064;DHT22;8136;53.172;8.256;2023-12-04T09:19:42;1.70;99.90
16064;DHT22;8136;53.172;8.256;2023-12-04T09:22:11;1.70;99.90
16064;DHT22;8136;53.172;8.256;2023-12-04T09:24:39;1.70;99.90
16064;DHT22;8136;53.172;8.256;2023-12-04T09:27:06;1.70;99.90
16064;DHT22;8136;53.172;8.256;2023-12-04T09:29:37;1.70;99.90
16064;DHT22;8136;53.172;8.256;2023-12-04T09:32:21;1.70;99.90
16064;DHT22;8136;53.172;8.256;2023-12-04T09:34:49;1.70;99.90
16064;DHT22;8136;53.172;8.256;2023-12-04T09:37:24;1.70;99.90
16064;DHT22;8136;53.172;8.256;2023-12-04T09:40:10;1.70;99.90
16064;DHT22;8136;53.172;8.256;2023-12-04T09:42:41;1.70;99.90
16064;DHT22;8136;53.172;8.256;2023-12-04T09:45:29;1.70;99.90
16064;DHT22;8136;53.172;8.256;2023-12-04T09:48:05;1.70;99.90
16064;DHT22;8136;53.172;8.256;2023-12-04T09:50:44;1.80;99.90
16064;DHT22;8136;53.172;8.256;2023-12-04T09:53:28;1.80;99.90
16064;DHT22;8136;53.172;8.256;2023-12-04T09:56:00;1.80;99.90
16064;DHT22;8136;53.172;8.256;2023-12-04T09:58:52;1.80;99.90
16064;DHT22;8136;53.172;8.256;2023-12-04T10:05:06;1.90;99.90
16064;DHT22;8136;53.172;8.256;2023-12-04T10:07:34;1.90;99.90
16064;DHT22;8136;53.172;8.256;2023-12-04T10:10:04;1.90;99.90
16064;DHT22;8136;53.172;8.256;2023-12-04T10:12:33;1.90;99.90
16064;DHT22;8136;53.172;8.256;2023-12-04T10:15:04;1.90;99.90
16064;DHT22;8136;53.172;8.256;2023-12-04T10:17:36;1.90;99.90
16064;DHT22;8136;53.172;8.256;2023-12-04T10:20:11;1.90;99.90
16064;DHT22;8136;53.172;8.256;2023-12-04T10:22:53;2.00;99.90
16064;DHT22;8136;53.172;8.256;2023-12-04T10:25:24;2.00;99.90
16064;DHT22;8136;53.172;8.256;2023-12-04T10:27:53;2.00;99.90
16064;DHT22;8136;53.172;8.256;2023-12-04T12:08:33;2.90;99.90
16064;DHT22;8136;53.172;8.256;2023-12-04T12:11:06;2.80;99.90
16064;DHT22;8136;53.172;8.256;2023-12-04T12:13:33;2.70;99.90
16064;DHT22;8136;53.172;8.256;2023-12-04T12:16:05;2.70;99.90
16064;DHT22;8136;53.172;8.256;2023-12-04T12:18:34;2.70;99.90
16064;DHT22;8136;53.172;8.256;2023-12-04T12:21:02;2.70;99.90
16064;DHT22;8136;53.172;8.256;2023-12-04T12:23:34;2.80;99.90
16064;DHT22;8136;53.172;8.256;2023-12-04T12:26:02;2.80;99.90
16064;DHT22;8136;53.172;8.256;2023-12-04T12:28:36;2.80;99.90
16064;DHT22;8136;53.172;8.256;2023-12-04T12:31:05;2.80;99.90
16064;DHT22;8136;53.172;8.256;2023-12-04T12:33:32;2.80;99.90
16064;DHT22;8136;53.172;8.256;2023-12-04T12:36:09;2.80;99.90
16064;DHT22;8136;53.172;8.256;2023-12-04T12:38:38;2.80;99.90
16064;DHT22;8136;53.172;8.256;2023-12-04T12:41:09;2.80;99.90
16064;DHT22;8136;53.172;8.256;2023-12-04T12:43:38;2.80;99.90
16064;DHT22;8136;53.172;8.256;2023-12-04T12:46:05;2.80;99.90
16064;DHT22;8136;53.172;8.256;2023-12-04T12:48:35;2.80;99.90
16064;DHT22;8136;53.172;8.256;2023-12-04T12:51:03;2.70;99.90
16064;DHT22;8136;53.172;8.256;2023-12-04T12:53:33;2.80;99.90
16064;DHT22;8136;53.172;8.256;2023-12-04T12:56:03;2.80;99.90
16064;DHT22;8136;53.172;8.256;2023-12-04T12:58:33;2.80;99.90
16064;DHT22;8136;53.172;8.256;2023-12-04T13:01:01;2.80;99.90
16064;DHT22;8136;53.172;8.256;2023-12-04T13:03:37;2.70;99.90
16064;DHT22;8136;53.172;8.256;2023-12-04T13:06:05;2.70;99.90
16064;DHT22;8136;53.172;8.256;2023-12-04T19:37:05;2.20;99.90
16064;DHT22;8136;53.172;8.256;2023-12-04T19:39:32;2.20;99.90
16064;DHT22;8136;53.172;8.256;2023-12-04T19:42:04;2.20;99.90
16064;DHT22;8136;53.172;8.256;2023-12-04T19:44:32;2.20;99.90
16064;DHT22;8136;53.172;8.256;2023-12-04T19:46:59;2.20;99.90
16064;DHT22;8136;53.172;8.256;2023-12-04T19:50:01;2.30;99.90
16064;DHT22;8136;53.172;8.256;2023-12-04T19:53:10;2.30;99.90
16064;DHT22;8136;53.172;8.256;2023-12-04T19:55:45;2.20;99.90
16064;DHT22;8136;53.172;8.256;2023-12-04T19:58:13;2.20;99.90
16064;DHT22;8136;53.172;8.256;2023-12-04T20:00:42;2.20;99.90
16064;DHT22;8136;53.172;8.256;2023-12-04T20:03:18;2.20;99.90
16064;DHT22;8136;53.172;8.256;2023-12-04T20:05:46;2.20;99.90
16064;DHT22;8136;53.172;8.256;2023-12-04T20:08:14;2.20;99.90
16064;DHT22;8136;53.172;8.256;2023-12-04T20:10:57;2.20;99.90
16064;DHT22;8136;53.172;8.256;2023-12-04T20:13:24;2.30;99.90
16064;DHT22;8136;53.172;8.256;2023-12-04T20:15:51;2.20;99.90
16064;DHT22;8136;53.172;8.256;2023-12-04T20:18:20;2.20;99.90
16064;DHT22;8136;53.172;8.256;2023-12-04T20:20:48;2.20;99.90
16064;DHT22;8136;53.172;8.256;2023-12-04T20:23:18;2.20;99.90
16064;DHT22;8136;53.172;8.256;2023-12-04T20:25:45;2.20;99.90
16064;DHT22;8136;53.172;8.256;2023-12-04T20:28:12;2.20;99.90
16064;DHT22;8136;53.172;8.256;2023-12-04T20:30:42;2.20;99.90
16064;DHT22;8136;53.172;8.256;2023-12-04T20:33:14;2.30;99.90
16064;DHT22;8136;53.172;8.256;2023-12-04T20:35:45;2.30;99.90
16064;DHT22;8136;53.172;8.256;2023-12-04T21:48:38;2.00;99.90
